Pagrindinis puslapis
METAR-TAF:

METAR-TAF

Oro uostai :

Dubrovnikas, Kroatija

platuma: 42-34N, ilguma: 018-16E, Aukštis: 157 m

Dabartinis oras

Ataskaita buvo paskelbta 30 minutes, ne 21:00 UTC
Vėjas 5 kt iš Vakarų, svyruoja nuo Pietvakarių ir Vakarų/Šiaurės Vakarų
Temperatūra 14°C
Drėgmė 55%
Slėgis 1019 hPa
Matomumas 10 km arba daugiau
nėra debesų žemiau 1500 m ir nėra kamuolinių lietaus debesų

METAR: LDDU 092100Z 27005KT 220V300 CAVOK 14/05 Q1019 NOSIG

Laikas: 23:30 (21:30 UTC)

Prognozė

Ataskaita buvo paskelbta 4 valandos ir 5 minutes, ne 17:25 UTC
Prognozė galioja nuo 09 metu 18 UTC su 10 metu 18 UTC
Vėjas 12 kt iš Vakarų/Šiaurės Vakarų
Matomumas 10 km arba daugiau
nėra debesų žemiau 1500 m ir nėra kamuolinių lietaus debesų
Tapsmas
nuo 09 metu 18 UTC su 09 metu 20 UTC
Vėjas 5 kt iš Šiaurės
Tapsmas
nuo 10 metu 12 UTC su 10 metu 14 UTC
Vėjas 8 kt iš Vakarų/Šiaurės Vakarų

TAF: LDDU 091725Z 0918/1018 30012KT CAVOK TX20/1011Z TN11/1005Z BECMG 0918/0920 01005KT BECMG 1012/1014 29008KT

Orai ataskaitas ir orų prognozės (METAR, TAF).

turimą stotys yra geltonos ir raudonos taškus žemėlapyje.

Perkelti pele per norėdami pamatyti stoties vardą.

Tada spustelėkite, norėdami matyti oro stebėjimo ir prognozės.

Norėdami pakeisti žemėlapį: spustelėkite ant žalios mygtukų su juodo kryžiaus žemyn,; žalią mygtuką su brūkšneliu, jei norite nutolinti; arba žalių rodyklių gretimoms žemėlapius.


METAR-TAF: